Decatur, IL (62521)

4:31 PM CST on January 26, 2015 (GMT -0600)
Sandhill Dr. | Change Station
CLOSE
Current Station
Personal Weather Station
Location: Decatur, IL
Elevation: 676 ft
Nearby Weather Stations

Elev 676 ft 39.82 °N, 88.92 °W | Updated 15 seconds ago

Overcast
Overcast
28.8 °F
Feels Like 25 °F
N
3.6
Wind Variable Wind from South
Gusts 5.4 mph

Today
High -- | Low -- °F
--% Chance of Precip.
Yesterday
High -- | Low -- °F
Precip. -- in
7:09 AM 5:07 PM
Waxing Crescent, 47% visible
Pressure 29.90 in
Visibility 6.0 miles
Clouds Overcast 1000 ft
Windchill 25 °F
Dew Point 28 °F
Humidity 96%
Rainfall 0.00 in
Snow Depth Not available.
UV 0 out of 12
Pollen .10 out of 12
Air Quality Not available.
Flu Activity Not available.
SPECI KDEC 262226Z 17008KT 6SM BR OVC010 M02/M02 A2990 RMK AO2 T10171022

More Conditions Fewer Conditions

Pressure 29.90 in
Visibility 6.0 miles
Clouds Overcast 1000 ft
Windchill 25 °F
Dew Point 28 °F
Humidity 96%
Rainfall 0.00 in
Snow Depth Not available.
UV 0 out of 12
Pollen .10 out of 12
Air Quality Not available.
Flu Activity Not available.
SPECI KDEC 262226Z 17008KT 6SM BR OVC010 M02/M02 A2990 RMK AO2 T10171022

More Conditions Fewer Conditions

10-Day Weather Forecast

Almanac

Astronomy

Jan. 26, 2015 Rise Set
Actual Time
Civil Twilight
Nautical Twilight
Astronomical Twilight
Moon
Length of Visible Light
Length of Day
Tomorrow will be .
, % of the Moon is Illuminated

Today's Extremes

State Highs State Lows

Community

WunderPhotos

Upload Photos

1,790,385 photos uploaded!

WunderBlogs® & News

Nearby

Air Quality

  Air Quality AQ Index Pollutant
Not available.

Snow Depth

Station Depth Elevation

Earthquake Activity

City Distance Mag. Time & Date
Minimum magnitude displayed is 2.5.

Coastal Water Temperatures

Place Temperature

Nearby Weather Stations